Time;durP1;ratioP1;P1;durP2;ratioP2;P2;SDS_P1;SDS_P2;PMS_P1;PMS_P2;Temp;Humidity;BMP_temperature;BMP_pressure;BME280_temperature;BME280_humidity;BME280_pressure;Samples;Min_cycle;Max_cycle;Signal;HPM_P1;HPM_P2
2024/01/17 00:00:50;;;;;;;52.07;20.57;;;;;;;-144.74;100.00;63161.41;5052145;28;20079;-71
2024/01/17 00:03:15;;;;;;;39.83;19.63;;;;;;;-144.74;100.00;63161.41;5051645;28;20021;-72
2024/01/17 00:05:41;;;;;;;43.43;19.63;;;;;;;-144.74;100.00;63161.41;5052935;28;20029;-72
2024/01/17 00:08:06;;;;;;;45.97;19.77;;;;;;;-144.74;100.00;63161.41;5053394;28;20024;-73
2024/01/17 00:10:34;;;;;;;38.80;18.70;;;;;;;-144.74;100.00;63161.41;5053069;28;20040;-72
2024/01/17 00:13:03;;;;;;;48.10;19.57;;;;;;;-144.74;100.00;63161.41;5053601;28;20067;-71
2024/01/17 00:15:28;;;;;;;45.00;20.53;;;;;;;-144.74;100.00;63161.41;5051831;28;20090;-72
2024/01/17 00:17:54;;;;;;;44.67;20.73;;;;;;;-144.74;100.00;63161.41;5054019;28;20032;-71
2024/01/17 00:20:19;;;;;;;43.60;19.17;;;;;;;-144.74;100.00;63161.41;5053169;28;20380;-72
2024/01/17 00:22:45;;;;;;;39.33;21.53;;;;;;;-144.74;100.00;63161.41;5053154;28;20111;-72
2024/01/17 00:25:11;;;;;;;47.07;19.37;;;;;;;-144.74;100.00;63161.41;5052496;28;20033;-74
2024/01/17 00:27:37;;;;;;;38.40;18.93;;;;;;;-144.74;100.00;63161.41;5069793;28;20055;-70
2024/01/17 00:30:03;;;;;;;41.67;18.77;;;;;;;-144.74;100.00;63161.41;5041534;28;20040;-71
2024/01/17 00:32:31;;;;;;;42.40;19.10;;;;;;;-144.74;100.00;63161.41;5052757;28;20035;-71
2024/01/17 00:34:57;;;;;;;37.40;19.77;;;;;;;-144.74;100.00;63161.41;5052931;28;20025;-71
2024/01/17 00:37:22;;;;;;;48.03;20.33;;;;;;;-144.74;100.00;63161.41;5052936;28;20028;-72
2024/01/17 00:39:48;;;;;;;46.00;18.60;;;;;;;-144.74;100.00;63161.41;5052361;28;20032;-71
2024/01/17 00:42:14;;;;;;;45.80;18.77;;;;;;;-144.74;100.00;63161.41;5052976;28;20095;-71
2024/01/17 00:44:40;;;;;;;43.87;19.20;;;;;;;-144.74;100.00;63161.41;5052231;28;20234;-71
2024/01/17 00:47:06;;;;;;;49.10;20.03;;;;;;;-144.74;100.00;63161.41;5053110;28;20052;-72
2024/01/17 00:49:32;;;;;;;77.30;22.23;;;;;;;-144.74;100.00;63161.41;5069449;28;20117;-71
2024/01/17 00:51:57;;;;;;;39.50;20.47;;;;;;;-144.74;100.00;63161.41;5051818;28;20216;-72
2024/01/17 00:54:22;;;;;;;50.00;19.80;;;;;;;-144.74;100.00;63161.41;5069687;28;20033;-72
2024/01/17 00:56:48;;;;;;;39.00;20.30;;;;;;;-144.74;100.00;63161.41;5052101;28;20035;-71
2024/01/17 00:59:13;;;;;;;56.57;21.10;;;;;;;-144.74;100.00;63161.41;5053084;28;20056;-71
2024/01/17 01:01:38;;;;;;;40.23;19.77;;;;;;;-144.74;100.00;63161.41;5054584;28;20028;-71
2024/01/17 01:04:04;;;;;;;44.27;19.20;;;;;;;-144.74;100.00;63161.41;5072638;28;20032;-72
2024/01/17 01:06:29;;;;;;;50.57;20.90;;;;;;;-144.74;100.00;63161.41;5074505;28;20411;-71
2024/01/17 01:08:54;;;;;;;42.80;19.70;;;;;;;-144.74;100.00;63161.41;5073980;28;20036;-72
2024/01/17 01:11:20;;;;;;;49.60;19.50;;;;;;;-144.74;100.00;63161.41;5056474;28;20505;-71
2024/01/17 01:13:48;;;;;;;42.93;19.47;;;;;;;-144.74;100.00;63161.41;5055637;28;20066;-71
2024/01/17 01:16:13;;;;;;;54.03;19.43;;;;;;;-144.74;100.00;63161.41;5056221;28;20029;-71
2024/01/17 01:18:39;;;;;;;45.90;19.60;;;;;;;-144.74;100.00;63161.41;5055634;28;20070;-71
2024/01/17 01:21:04;;;;;;;41.77;19.57;;;;;;;-144.74;100.00;63161.41;5054740;28;20417;-71
2024/01/17 01:23:29;;;;;;;35.80;17.27;;;;;;;-144.74;100.00;63161.41;5054944;28;20024;-71
2024/01/17 01:25:55;;;;;;;52.77;17.10;;;;;;;-144.74;100.00;63161.41;5074384;28;20024;-72
2024/01/17 01:28:20;;;;;;;42.47;19.43;;;;;;;-144.74;100.00;63161.41;5056401;28;20025;-72
2024/01/17 01:30:45;;;;;;;46.93;17.97;;;;;;;-144.74;100.00;63161.41;5073059;28;20170;-72
2024/01/17 01:33:14;;;;;;;36.27;17.70;;;;;;;-144.74;100.00;63161.41;5056353;28;20103;-71
2024/01/17 01:35:39;;;;;;;39.23;18.30;;;;;;;-144.74;100.00;63161.41;5053861;28;20032;-71
2024/01/17 01:38:05;;;;;;;44.67;17.40;;;;;;;-144.74;100.00;63161.41;5056458;28;20031;-70
2024/01/17 01:40:30;;;;;;;41.13;18.20;;;;;;;-144.74;100.00;63161.41;5055022;28;20036;-71
2024/01/17 01:42:58;;;;;;;43.77;18.50;;;;;;;-144.74;100.00;63161.41;5054553;28;20017;-72
2024/01/17 01:45:24;;;;;;;40.27;17.07;;;;;;;-144.74;100.00;63161.41;5053941;28;20056;-72
2024/01/17 01:47:50;;;;;;;39.73;18.10;;;;;;;-144.74;100.00;63161.41;5073363;28;20052;-72
2024/01/17 01:50:16;;;;;;;35.83;16.17;;;;;;;-144.74;100.00;63161.41;5053996;28;20040;-72
2024/01/17 01:52:44;;;;;;;41.40;18.03;;;;;;;-144.74;100.00;63161.41;5055906;28;20088;-73
2024/01/17 01:55:09;;;;;;;45.23;19.53;;;;;;;-144.74;100.00;63161.41;5055167;28;20052;-72
2024/01/17 01:57:38;;;;;;;41.30;17.57;;;;;;;-144.74;100.00;63161.41;5055410;28;20021;-71
2024/01/17 02:00:04;;;;;;;50.27;18.57;;;;;;;-144.74;100.00;63161.41;5067062;28;20020;-72
2024/01/17 02:02:32;;;;;;;36.70;17.03;;;;;;;-144.74;100.00;63161.41;5070963;28;20115;-72
2024/01/17 02:04:58;;;;;;;38.67;17.80;;;;;;;-144.74;100.00;63161.41;5054879;28;20048;-71
2024/01/17 02:07:25;;;;;;;52.07;17.03;;;;;;;-144.74;100.00;63161.41;5055513;28;20075;-73
2024/01/17 02:09:50;;;;;;;44.87;18.00;;;;;;;-144.74;100.00;63161.41;5072544;28;20036;-72
2024/01/17 02:12:15;;;;;;;39.17;17.20;;;;;;;-144.74;100.00;63161.41;5054962;28;20036;-71
2024/01/17 02:14:41;;;;;;;39.50;17.03;;;;;;;-144.74;100.00;63161.41;5053004;28;20091;-71
2024/01/17 02:17:10;;;;;;;41.27;17.60;;;;;;;-144.74;100.00;63161.41;5055012;28;20115;-72
2024/01/17 02:19:37;;;;;;;35.83;16.60;;;;;;;-144.74;100.00;63161.41;5053329;28;20045;-72
2024/01/17 02:22:03;;;;;;;41.07;16.70;;;;;;;-144.74;100.00;63161.41;5054452;28;20016;-72
2024/01/17 02:24:28;;;;;;;41.03;19.00;;;;;;;-144.74;100.00;63161.41;5054131;28;20090;-72
2024/01/17 02:27:01;;;;;;;38.87;17.87;;;;;;;-144.74;100.00;63161.41;5055188;28;20052;-72
2024/01/17 02:29:29;;;;;;;41.73;17.67;;;;;;;-144.74;100.00;63161.41;5054632;28;20044;-71
2024/01/17 02:31:54;;;;;;;48.20;18.20;;;;;;;-144.74;100.00;63161.41;5054310;28;20039;-72
2024/01/17 02:34:20;;;;;;;37.47;17.43;;;;;;;-144.74;100.00;63161.41;5071641;28;20507;-72
2024/01/17 02:36:46;;;;;;;35.73;15.60;;;;;;;-144.74;100.00;63161.41;5054422;28;20078;-72
2024/01/17 02:39:17;;;;;;;40.47;16.70;;;;;;;-144.74;100.00;63161.41;5072050;28;20082;-72
2024/01/17 02:41:43;;;;;;;42.22;17.45;;;;;;;-144.74;100.00;63161.41;5052852;28;20046;-72
2024/01/17 02:44:08;;;;;;;35.43;17.33;;;;;;;-144.74;100.00;63161.41;5053535;28;20033;-71
2024/01/17 02:46:34;;;;;;;31.87;15.33;;;;;;;-144.74;100.00;63161.41;5053818;28;20027;-73
2024/01/17 02:48:59;;;;;;;33.87;15.93;;;;;;;-144.74;100.00;63161.41;5052989;28;20024;-71
2024/01/17 02:51:25;;;;;;;38.97;17.57;;;;;;;-144.74;100.00;63161.41;5054704;28;20021;-74
2024/01/17 02:53:50;;;;;;;41.10;16.87;;;;;;;-144.74;100.00;63161.41;5052050;28;20055;-71
2024/01/17 02:56:16;;;;;;;34.03;16.03;;;;;;;-144.74;100.00;63161.41;5072112;28;20031;-71
2024/01/17 02:58:42;;;;;;;40.57;15.80;;;;;;;-144.74;100.00;63161.41;5053951;28;20073;-71
2024/01/17 03:01:07;;;;;;;37.93;15.77;;;;;;;-144.74;100.00;63161.41;5072840;28;20084;-71
2024/01/17 03:03:33;;;;;;;36.20;16.17;;;;;;;-144.74;100.00;63161.41;5050307;28;20032;-74
2024/01/17 03:06:01;;;;;;;36.60;15.83;;;;;;;-144.74;100.00;63161.41;5054324;28;20024;-72
2024/01/17 03:08:26;;;;;;;33.90;14.77;;;;;;;-144.74;100.00;63161.41;5054424;28;20032;-72
2024/01/17 03:10:52;;;;;;;44.10;15.67;;;;;;;-144.74;100.00;63161.41;5071748;28;20040;-71
2024/01/17 03:13:17;;;;;;;35.83;15.17;;;;;;;-144.74;100.00;63161.41;5054257;28;20036;-71
2024/01/17 03:15:43;;;;;;;34.37;15.73;;;;;;;-144.74;100.00;63161.41;5053096;28;20040;-72
2024/01/17 03:18:13;;;;;;;33.90;15.63;;;;;;;-144.74;100.00;63161.41;5059514;28;20415;-71
2024/01/17 03:20:40;;;;;;;35.57;16.80;;;;;;;-144.74;100.00;63161.41;5053201;28;20545;-72
2024/01/17 03:23:08;;;;;;;46.73;18.70;;;;;;;-144.74;100.00;63161.41;5053552;28;20026;-73
2024/01/17 03:25:34;;;;;;;39.77;17.17;;;;;;;-144.74;100.00;63161.41;5052754;28;20036;-72
2024/01/17 03:27:59;;;;;;;42.97;18.93;;;;;;;-144.74;100.00;63161.41;5053736;28;20062;-71
2024/01/17 03:30:24;;;;;;;44.47;17.57;;;;;;;-144.74;100.00;63161.41;5053329;28;20059;-72
2024/01/17 03:32:50;;;;;;;40.33;20.80;;;;;;;-144.74;100.00;63161.41;5053378;28;20021;-71
2024/01/17 03:35:15;;;;;;;42.13;21.17;;;;;;;-144.74;100.00;63161.41;5053638;28;20510;-72
2024/01/17 03:37:40;;;;;;;44.93;20.23;;;;;;;-144.74;100.00;63161.41;5054128;28;20036;-72
2024/01/17 03:40:06;;;;;;;39.73;19.53;;;;;;;-144.74;100.00;63161.41;5071032;28;20032;-71
2024/01/17 03:42:32;;;;;;;46.53;19.80;;;;;;;-144.74;100.00;63161.41;5053659;28;20036;-71
2024/01/17 03:44:57;;;;;;;39.90;19.03;;;;;;;-144.74;100.00;63161.41;5070780;28;20036;-72
2024/01/17 03:47:22;;;;;;;42.07;21.70;;;;;;;-144.74;100.00;63161.41;5053992;28;20360;-71
2024/01/17 03:49:48;;;;;;;48.20;20.73;;;;;;;-144.74;100.00;63161.41;5053044;28;20051;-71
2024/01/17 03:52:13;;;;;;;46.10;21.10;;;;;;;-144.74;100.00;63161.41;5069967;28;20029;-73
2024/01/17 03:54:39;;;;;;;39.53;21.40;;;;;;;-144.74;100.00;63161.41;5052887;28;20071;-69
2024/01/17 03:57:05;;;;;;;49.80;19.30;;;;;;;-144.74;100.00;63161.41;5053636;28;20020;-71
2024/01/17 03:59:30;;;;;;;49.57;21.37;;;;;;;-144.74;100.00;63161.41;5053071;28;20045;-71
2024/01/17 04:01:59;;;;;;;50.27;22.27;;;;;;;-144.74;100.00;63161.41;5071529;28;20108;-72
2024/01/17 04:04:27;;;;;;;47.72;21.65;;;;;;;-144.74;100.00;63161.41;5053216;28;20039;-71
2024/01/17 04:06:55;;;;;;;46.90;19.87;;;;;;;-144.74;100.00;63161.41;5053440;28;20021;-73
2024/01/17 04:09:21;;;;;;;49.60;21.90;;;;;;;-144.74;100.00;63161.41;5054848;28;20495;-72
2024/01/17 04:11:46;;;;;;;45.87;19.87;;;;;;;-144.74;100.00;63161.41;5052885;28;20098;-72
2024/01/17 04:14:12;;;;;;;40.10;19.67;;;;;;;-144.74;100.00;63161.41;5053114;28;20025;-72
2024/01/17 04:16:40;;;;;;;51.30;21.83;;;;;;;-144.74;100.00;63161.41;5053037;28;20020;-72
2024/01/17 04:19:08;;;;;;;40.67;20.40;;;;;;;-144.74;100.00;63161.41;5073993;28;20036;-72
2024/01/17 04:21:34;;;;;;;49.37;23.23;;;;;;;-144.74;100.00;63161.41;5053292;28;20024;-72
2024/01/17 04:24:02;;;;;;;50.13;20.77;;;;;;;-144.74;100.00;63161.41;5042791;28;20036;-72
2024/01/17 04:26:30;;;;;;;43.40;20.40;;;;;;;-144.74;100.00;63161.41;5051837;28;20097;-72
2024/01/17 04:28:58;;;;;;;40.87;19.47;;;;;;;-144.74;100.00;63161.41;5059314;28;20094;-71
2024/01/17 04:31:28;;;;;;;48.10;19.20;;;;;;;-144.74;100.00;63161.41;5051774;28;20103;-73
2024/01/17 04:34:02;;;;;;;44.50;21.03;;;;;;;-144.74;100.00;63161.41;5051653;28;20036;-72
2024/01/17 04:36:29;;;;;;;45.90;19.50;;;;;;;-144.74;100.00;63161.41;5056155;28;20024;-71
2024/01/17 04:38:54;;;;;;;41.67;19.67;;;;;;;-144.74;100.00;63161.41;5056400;28;20061;-72
2024/01/17 04:41:20;;;;;;;35.43;18.03;;;;;;;-144.74;100.00;63161.41;5057061;28;20516;-72
2024/01/17 04:43:46;;;;;;;46.90;20.13;;;;;;;-144.74;100.00;63161.41;5073770;28;20025;-71
2024/01/17 04:46:16;;;;;;;44.87;18.80;;;;;;;-144.74;100.00;63161.41;5055469;28;20029;-72
2024/01/17 04:48:43;;;;;;;58.03;18.07;;;;;;;-144.74;100.00;63161.41;5045985;28;20028;-72
2024/01/17 04:51:12;;;;;;;45.13;19.57;;;;;;;-144.74;100.00;63161.41;5072397;28;20475;-71
2024/01/17 04:53:48;;;;;;;39.70;18.60;;;;;;;-144.74;100.00;63161.41;5056049;28;20017;-72
2024/01/17 04:56:15;;;;;;;46.30;17.93;;;;;;;-144.74;100.00;63161.41;5069452;28;20376;-71
2024/01/17 04:58:44;;;;;;;47.30;20.10;;;;;;;-144.74;100.00;63161.41;5073746;28;20447;-71
2024/01/17 05:01:09;;;;;;;37.40;18.17;;;;;;;-144.74;100.00;63161.41;5056816;28;20017;-72
2024/01/17 05:03:35;;;;;;;37.60;17.73;;;;;;;-144.74;100.00;63161.41;5055289;28;20031;-70
2024/01/17 05:06:02;;;;;;;47.60;18.57;;;;;;;-144.74;100.00;63161.41;5056674;28;20016;-71
2024/01/17 05:08:27;;;;;;;39.43;19.53;;;;;;;-144.74;100.00;63161.41;5057114;28;20025;-70
2024/01/17 05:10:53;;;;;;;47.77;18.23;;;;;;;-144.74;100.00;63161.41;5075027;28;20037;-72
2024/01/17 05:13:18;;;;;;;58.03;18.77;;;;;;;-144.74;100.00;63161.41;5056416;28;20024;-70
2024/01/17 05:15:43;;;;;;;36.33;16.40;;;;;;;-144.74;100.00;63161.41;5055166;28;20488;-70
2024/01/17 05:18:09;;;;;;;35.27;18.13;;;;;;;-144.74;100.00;63161.41;5055879;28;20044;-71
2024/01/17 05:20:35;;;;;;;48.23;19.00;;;;;;;-144.74;100.00;63161.41;5055174;28;20483;-71
2024/01/17 05:23:00;;;;;;;37.60;18.57;;;;;;;-144.74;100.00;63161.41;5056351;28;20029;-71
2024/01/17 05:25:27;;;;;;;49.63;17.77;;;;;;;-144.74;100.00;63161.41;5055367;28;20043;-70
2024/01/17 05:27:58;;;;;;;40.47;18.37;;;;;;;-144.74;100.00;63161.41;5055940;28;20038;-71
2024/01/17 05:30:25;;;;;;;38.97;16.83;;;;;;;-144.74;100.00;63161.41;5055484;28;20032;-71
2024/01/17 05:32:53;;;;;;;37.63;17.50;;;;;;;-144.74;100.00;63161.41;5055880;28;20074;-70
2024/01/17 05:35:23;;;;;;;36.87;17.87;;;;;;;-144.74;100.00;63161.41;5054870;28;20511;-70
2024/01/17 05:37:48;;;;;;;38.70;15.70;;;;;;;-144.74;100.00;63161.41;5055615;28;20028;-71
2024/01/17 05:40:14;;;;;;;35.07;16.77;;;;;;;-144.74;100.00;63161.41;5072585;28;20086;-71
2024/01/17 05:42:40;;;;;;;47.70;17.27;;;;;;;-144.74;100.00;63161.41;5055581;28;20047;-70
2024/01/17 05:45:07;;;;;;;39.93;16.90;;;;;;;-144.74;100.00;63161.41;5048640;28;20028;-71
2024/01/17 05:47:37;;;;;;;44.57;17.93;;;;;;;-144.74;100.00;63161.41;5054629;28;20020;-70
2024/01/17 05:50:04;;;;;;;39.00;18.57;;;;;;;-144.74;100.00;63161.41;5072858;28;20090;-71
2024/01/17 05:52:32;;;;;;;38.90;18.77;;;;;;;-144.74;100.00;63161.41;5055216;28;20081;-71
2024/01/17 05:54:57;;;;;;;39.97;16.87;;;;;;;-144.74;100.00;63161.41;5054524;28;20024;-71
2024/01/17 05:57:23;;;;;;;34.67;17.80;;;;;;;-144.74;100.00;63161.41;5055351;28;20025;-71
2024/01/17 05:59:48;;;;;;;37.50;17.47;;;;;;;-144.74;100.00;63161.41;5054475;28;20028;-70
2024/01/17 06:02:14;;;;;;;37.63;16.80;;;;;;;-144.74;100.00;63161.41;5052877;28;20029;-70
2024/01/17 06:04:42;;;;;;;36.13;15.87;;;;;;;-144.74;100.00;63161.41;5053052;28;20043;-70
2024/01/17 06:07:08;;;;;;;38.90;16.13;;;;;;;-144.74;100.00;63161.41;5073072;28;20020;-71
2024/01/17 06:09:33;;;;;;;37.10;17.17;;;;;;;-144.74;100.00;63161.41;5072115;28;20115;-70
2024/01/17 06:11:58;;;;;;;36.80;16.83;;;;;;;-144.74;100.00;63161.41;5055015;28;20035;-70
2024/01/17 06:14:24;;;;;;;46.33;19.93;;;;;;;-144.74;100.00;63161.41;5054524;28;20028;-71
2024/01/17 06:16:52;;;;;;;39.87;16.93;;;;;;;-144.74;100.00;63161.41;5054627;28;20086;-71
2024/01/17 06:19:18;;;;;;;31.60;14.90;;;;;;;-144.74;100.00;63161.41;5058136;28;20029;-72
2024/01/17 06:21:43;;;;;;;38.30;16.17;;;;;;;-144.74;100.00;63161.41;5046809;28;20030;-71
2024/01/17 06:24:09;;;;;;;34.40;15.37;;;;;;;-144.74;100.00;63161.41;5054808;28;20024;-70
2024/01/17 06:26:34;;;;;;;40.37;16.47;;;;;;;-144.74;100.00;63161.41;5054794;28;20059;-71
2024/01/17 06:29:02;;;;;;;32.27;15.00;;;;;;;-144.74;100.00;63161.41;5054174;28;20051;-70
2024/01/17 06:31:31;;;;;;;46.43;18.80;;;;;;;-144.74;100.00;63161.41;5072234;28;20028;-70
2024/01/17 06:33:56;;;;;;;35.20;15.93;;;;;;;-144.74;100.00;63161.41;5053476;28;20025;-71
2024/01/17 06:36:22;;;;;;;35.27;14.97;;;;;;;-144.74;100.00;63161.41;5054720;28;20025;-71
2024/01/17 06:38:48;;;;;;;44.03;15.97;;;;;;;-144.74;100.00;63161.41;5051376;28;20116;-71
2024/01/17 06:41:13;;;;;;;42.23;19.13;;;;;;;-144.74;100.00;63161.41;5054947;28;20103;-71
2024/01/17 06:43:38;;;;;;;40.53;16.83;;;;;;;-144.74;100.00;63161.41;5053460;28;20052;-71
2024/01/17 06:46:04;;;;;;;40.67;16.23;;;;;;;-144.74;100.00;63161.41;5054400;28;20020;-72
2024/01/17 06:48:30;;;;;;;36.57;14.90;;;;;;;-144.74;100.00;63161.41;5053432;28;20448;-71
2024/01/17 06:50:55;;;;;;;37.10;17.17;;;;;;;-144.74;100.00;63161.41;5054018;28;20054;-71
2024/01/17 06:53:22;;;;;;;31.27;15.03;;;;;;;-144.74;100.00;63161.41;5072046;28;20081;-70
2024/01/17 06:55:48;;;;;;;30.70;14.40;;;;;;;-144.74;100.00;63161.41;5053268;28;20079;-71
2024/01/17 06:58:13;;;;;;;38.07;15.37;;;;;;;-144.74;100.00;63161.41;5054225;28;20044;-71
2024/01/17 07:00:39;;;;;;;35.90;15.17;;;;;;;-144.74;100.00;63161.41;5053113;28;20035;-72
2024/01/17 07:03:04;;;;;;;35.80;14.77;;;;;;;-144.74;100.00;63161.41;5051378;28;20036;-72
2024/01/17 07:05:29;;;;;;;28.17;13.10;;;;;;;-144.74;100.00;63161.41;5053161;28;20035;-70
2024/01/17 07:07:55;;;;;;;34.93;16.00;;;;;;;-144.74;100.00;63161.41;5053960;28;20039;-71
2024/01/17 07:10:20;;;;;;;37.80;13.73;;;;;;;-144.74;100.00;63161.41;5053397;28;20037;-71
2024/01/17 07:12:46;;;;;;;27.70;13.00;;;;;;;-144.74;100.00;63161.41;5053813;28;20028;-71
2024/01/17 07:15:11;;;;;;;26.93;13.13;;;;;;;-144.74;100.00;63161.41;5053366;28;20036;-71
2024/01/17 07:17:40;;;;;;;33.77;14.83;;;;;;;-144.74;100.00;63161.41;5053698;28;20063;-70
2024/01/17 07:20:05;;;;;;;39.07;13.50;;;;;;;-144.74;100.00;63161.41;5052850;28;20028;-70
2024/01/17 07:22:31;;;;;;;29.80;12.17;;;;;;;-144.74;100.00;63161.41;5053782;28;20107;-70
2024/01/17 07:24:56;;;;;;;32.60;12.27;;;;;;;-144.74;100.00;63161.41;5051176;28;20100;-74
2024/01/17 07:27:25;;;;;;;32.53;13.40;;;;;;;-144.74;100.00;63161.41;5048487;28;20030;-73
2024/01/17 07:29:50;;;;;;;32.43;12.00;;;;;;;-144.74;100.00;63161.41;5045472;28;20108;-74
2024/01/17 07:32:16;;;;;;;29.83;12.80;;;;;;;-144.74;100.00;63161.41;5054117;28;20154;-71
2024/01/17 07:34:41;;;;;;;28.80;11.40;;;;;;;-144.74;100.00;63161.41;5065794;28;20025;-70
2024/01/17 07:37:07;;;;;;;31.13;12.60;;;;;;;-144.74;100.00;63161.41;5048136;28;20024;-71
2024/01/17 07:39:32;;;;;;;33.27;11.63;;;;;;;-144.74;100.00;63161.41;5053846;28;20036;-71
2024/01/17 07:41:57;;;;;;;43.40;12.50;;;;;;;-144.74;100.00;63161.41;5053782;28;20017;-71
2024/01/17 07:44:29;;;;;;;28.83;12.37;;;;;;;-144.74;100.00;63161.41;5053269;28;20139;-71
2024/01/17 07:46:54;;;;;;;23.13;11.82;;;;;;;-144.74;100.00;63161.41;5053503;28;20055;-70
2024/01/17 07:49:21;;;;;;;30.57;11.57;;;;;;;-144.74;100.00;63161.41;5053669;28;20064;-71
2024/01/17 07:51:47;;;;;;;29.10;12.27;;;;;;;-144.74;100.00;63161.41;5053612;28;20060;-70
2024/01/17 07:54:13;;;;;;;24.23;10.93;;;;;;;-144.74;100.00;63161.41;5053103;28;20090;-70
2024/01/17 07:56:38;;;;;;;28.23;11.43;;;;;;;-144.74;100.00;63161.41;5052232;28;20124;-69
2024/01/17 07:59:04;;;;;;;26.37;11.80;;;;;;;-144.74;100.00;63161.41;5053145;28;20475;-70
2024/01/17 08:01:29;;;;;;;28.37;10.47;;;;;;;-144.74;100.00;63161.41;5055790;28;20028;-69
2024/01/17 08:03:55;;;;;;;31.13;10.67;;;;;;;-144.74;100.00;63161.41;5052561;28;20032;-70
2024/01/17 08:06:20;;;;;;;23.13;9.27;;;;;;;-144.74;100.00;63161.41;5053947;28;20028;-70
2024/01/17 08:08:46;;;;;;;30.47;11.50;;;;;;;-144.74;100.00;63161.41;5053147;28;20020;-71
2024/01/17 08:11:11;;;;;;;28.70;10.83;;;;;;;-144.74;100.00;63161.41;5055927;28;20463;-70
2024/01/17 08:13:37;;;;;;;27.43;11.63;;;;;;;-144.74;100.00;63161.41;5056044;28;20016;-71
2024/01/17 08:16:02;;;;;;;33.40;11.07;;;;;;;-144.74;100.00;63161.41;5072322;28;20009;-70
2024/01/17 08:18:28;;;;;;;21.40;10.57;;;;;;;-144.74;100.00;63161.41;5047716;28;20025;-70
2024/01/17 08:20:53;;;;;;;24.43;11.17;;;;;;;-144.74;100.00;63161.41;5055025;28;20029;-70
2024/01/17 08:23:18;;;;;;;28.93;9.00;;;;;;;-144.74;100.00;63161.41;5058158;28;20535;-70
2024/01/17 08:25:44;;;;;;;24.37;10.17;;;;;;;-144.74;100.00;63161.41;5047242;28;20057;-69
2024/01/17 08:28:09;;;;;;;20.80;9.23;;;;;;;-144.74;100.00;63161.41;5057333;28;20029;-69
2024/01/17 08:30:34;;;;;;;23.57;9.37;;;;;;;-144.74;100.00;63161.41;5053712;28;20053;-69
2024/01/17 08:33:00;;;;;;;32.77;10.60;;;;;;;-144.74;100.00;63161.41;5048418;28;20078;-71
2024/01/17 08:35:25;;;;;;;21.70;8.40;;;;;;;-144.74;100.00;63161.41;5057069;28;20036;-71
2024/01/17 08:37:51;;;;;;;22.83;8.43;;;;;;;-144.74;100.00;63161.41;5074914;28;20103;-71
2024/01/17 08:40:16;;;;;;;22.77;8.90;;;;;;;-144.74;100.00;63161.41;5053911;28;20025;-71
2024/01/17 08:42:43;;;;;;;21.40;9.37;;;;;;;-144.74;100.00;63161.41;5057299;28;20073;-70
2024/01/17 08:45:10;;;;;;;20.47;8.43;;;;;;;-144.74;100.00;63161.41;5056151;28;20115;-70
2024/01/17 08:47:36;;;;;;;28.70;9.63;;;;;;;-144.74;100.00;63161.41;5056255;28;20020;-71
2024/01/17 08:50:03;;;;;;;25.50;8.43;;;;;;;-144.74;100.00;63161.41;5055204;28;20059;-70
2024/01/17 08:52:28;;;;;;;21.47;8.40;;;;;;;-144.74;100.00;63161.41;5044093;28;20116;-71
2024/01/17 08:54:57;;;;;;;29.73;9.70;;;;;;;-144.74;100.00;63161.41;5056252;28;20111;-70
2024/01/17 08:57:22;;;;;;;23.60;7.67;;;;;;;-144.74;100.00;63161.41;5055933;28;20091;-71
2024/01/17 08:59:48;;;;;;;16.97;7.90;;;;;;;-144.74;100.00;63161.41;5056422;28;20447;-71
2024/01/17 09:02:13;;;;;;;16.57;8.23;;;;;;;-144.74;100.00;63161.41;5052093;28;20107;-71
2024/01/17 09:04:39;;;;;;;27.83;8.47;;;;;;;-144.74;100.00;63161.41;5056152;28;20031;-71
2024/01/17 09:07:04;;;;;;;22.57;8.17;;;;;;;-144.74;100.00;63161.41;5074537;28;20047;-71
2024/01/17 09:09:30;;;;;;;28.90;8.00;;;;;;;-144.74;100.00;63161.41;5056483;28;20056;-70
2024/01/17 09:11:56;;;;;;;20.43;8.40;;;;;;;-144.74;100.00;63161.41;5056257;28;20111;-71
2024/01/17 09:14:24;;;;;;;18.23;8.17;;;;;;;-144.74;100.00;63161.41;5054541;28;20084;-72
2024/01/17 09:16:51;;;;;;;22.83;8.40;;;;;;;-144.74;100.00;63161.41;5056538;28;20021;-71
2024/01/17 09:19:17;;;;;;;22.30;7.43;;;;;;;-144.74;100.00;63161.41;5055966;28;20093;-70
2024/01/17 09:21:42;;;;;;;19.57;7.20;;;;;;;-144.74;100.00;63161.41;5056329;28;20025;-71
2024/01/17 09:24:08;;;;;;;26.70;8.40;;;;;;;-144.74;100.00;63161.41;5074128;28;20029;-70
2024/01/17 09:26:33;;;;;;;33.37;9.30;;;;;;;-144.74;100.00;63161.41;5056262;28;20024;-70
2024/01/17 09:28:59;;;;;;;21.03;8.63;;;;;;;-144.74;100.00;63161.41;5053776;28;20028;-72
2024/01/17 09:31:24;;;;;;;17.60;7.10;;;;;;;-144.74;100.00;63161.41;5056143;28;20024;-71
2024/01/17 09:33:49;;;;;;;22.43;8.23;;;;;;;-144.74;100.00;63161.41;5055055;28;20029;-71
2024/01/17 09:36:14;;;;;;;21.50;8.77;;;;;;;-144.74;100.00;63161.41;5056000;28;20020;-70
2024/01/17 09:38:40;;;;;;;30.47;8.27;;;;;;;-144.74;100.00;63161.41;5055393;28;20021;-73
2024/01/17 09:41:05;;;;;;;21.33;8.97;;;;;;;-144.74;100.00;63161.41;5056199;28;20017;-70
2024/01/17 09:43:31;;;;;;;26.00;8.47;;;;;;;-144.74;100.00;63161.41;5054859;28;20464;-71
2024/01/17 09:45:59;;;;;;;25.80;8.73;;;;;;;-144.74;100.00;63161.41;5054478;28;20021;-69
2024/01/17 09:48:25;;;;;;;26.07;8.33;;;;;;;-144.74;100.00;63161.41;5055893;28;20020;-70
2024/01/17 09:50:51;;;;;;;25.53;8.20;;;;;;;-144.74;100.00;63161.41;5055785;28;20037;-72
2024/01/17 09:53:23;;;;;;;15.57;7.67;;;;;;;-144.74;100.00;63161.41;5055905;28;20032;-70
2024/01/17 09:55:52;;;;;;;21.60;8.20;;;;;;;-144.74;100.00;63161.41;5072725;28;20024;-70
2024/01/17 09:58:19;;;;;;;16.40;7.80;;;;;;;-144.74;100.00;63161.41;5055553;28;20048;-70
2024/01/17 10:00:48;;;;;;;19.53;8.23;;;;;;;-144.74;100.00;63161.41;5054773;28;20031;-71
2024/01/17 10:03:20;;;;;;;23.83;8.20;;;;;;;-144.74;100.00;63161.41;5052864;28;20067;-71
2024/01/17 10:05:54;;;;;;;19.97;8.30;;;;;;;-144.74;100.00;63161.41;5055383;28;21387;-72
2024/01/17 10:08:20;;;;;;;18.50;8.60;;;;;;;-144.74;100.00;63161.41;5073465;28;20017;-71
2024/01/17 10:10:45;;;;;;;22.97;8.07;;;;;;;-144.74;100.00;63161.41;5071494;28;20043;-70
2024/01/17 10:13:11;;;;;;;25.37;8.63;;;;;;;-144.74;100.00;63161.41;5054977;28;20024;-69
2024/01/17 10:15:44;;;;;;;19.27;7.63;;;;;;;-144.74;100.00;63161.41;5073565;28;20028;-70
2024/01/17 10:18:10;;;;;;;18.53;9.30;;;;;;;-144.74;100.00;63161.41;5071678;28;20029;-70
2024/01/17 10:20:36;;;;;;;16.67;8.73;;;;;;;-144.74;100.00;63161.41;5055185;28;20028;-71
2024/01/17 10:23:06;;;;;;;25.97;9.20;;;;;;;-144.74;100.00;63161.41;5052501;28;20054;-70
2024/01/17 10:25:42;;;;;;;23.47;9.13;;;;;;;-144.74;100.00;63161.41;5051724;28;20036;-71
2024/01/17 10:28:08;;;;;;;28.67;9.47;;;;;;;-144.74;100.00;63161.41;5055264;28;20100;-71
2024/01/17 10:30:37;;;;;;;19.37;9.40;;;;;;;-144.74;100.00;63161.41;5055054;28;20032;-71
2024/01/17 10:33:04;;;;;;;33.03;9.63;;;;;;;-144.74;100.00;63161.41;5052345;28;20024;-71
2024/01/17 10:35:30;;;;;;;23.03;9.03;;;;;;;-144.74;100.00;63161.41;5054855;28;20107;-71
2024/01/17 10:37:56;;;;;;;24.47;9.47;;;;;;;-144.74;100.00;63161.41;5057069;28;20024;-70
2024/01/17 10:40:21;;;;;;;22.37;9.07;;;;;;;-144.74;100.00;63161.41;5056505;28;20522;-70
2024/01/17 10:42:47;;;;;;;22.00;7.97;;;;;;;-144.74;100.00;63161.41;5054957;28;20021;-70
2024/01/17 10:45:20;;;;;;;20.77;8.40;;;;;;;-144.74;100.00;63161.41;5054725;28;20025;-70
2024/01/17 10:47:45;;;;;;;20.10;9.43;;;;;;;-144.74;100.00;63161.41;5055113;28;20016;-70
2024/01/17 10:50:10;;;;;;;30.30;9.40;;;;;;;-144.74;100.00;63161.41;5054802;28;20040;-70